King Bee — KINGBEE — position and weather

sailwx.info

Track history (hours):
 
Tides and Currents Weather Stations Pressure Air Temp Water Temp Dewpoint Dewpoint Depression Visibility Wind Speed Wind Dir Waves Ship Positions

King Bee

Last reported at 2017-Oct-20 19:37 UTC. Time now 2017-Nov-21 04:41 UTC.
Position N 32°47' W 117°22'.
Warning: this ship's position is 31 days out of date.

Type: Pleasure craft. MMSI: 431000933.

Date/timePositionNaut miles runAvg speedWind from/ knotsBaromVisibWave heightAir tempDewpointWater temp
2017-Oct-20 19:37N 32°47' W 117°22'1 5.9
2017-Oct-20 19:29N 32°48' W 117°22'3 6.2
2017-Oct-20 18:59N 32°51' W 117°23'3 6.4
2017-Oct-20 18:30N 32°54' W 117°23'3 6.3
2017-Oct-20 18:00N 32°57' W 117°24'3 6.0
2017-Oct-20 17:30N 33°00' W 117°24'3 6.3
2017-Oct-20 17:00N 33°03' W 117°24'3 5.6
2017-Oct-20 16:28N 33°06' W 117°25'3 6.4
2017-Oct-20 15:59N 33°10' W 117°25'2 0.1
2017-Oct-19 21:04N 33°12' W 117°24'0 6.0
2017-Oct-19 21:00N 33°12' W 117°25'  
Track history (hours):
 
Tides and Currents Weather Stations Pressure Air Temp Water Temp Dewpoint Dewpoint Depression Visibility Wind Speed Wind Dir Waves Ship Positions

King Bee

Last reported at 2017-Oct-20 19:37 UTC. Time now 2017-Nov-21 04:41 UTC.
Position N 32°47' W 117°22'.
Warning: this ship's position is 31 days out of date.

Type: Pleasure craft. MMSI: 431000933.

Date/timePositionNaut miles runAvg speedWind from/ knotsBaromVisibWave heightAir tempDewpointWater temp
2017-Oct-20 19:37N 32°47' W 117°22'1 5.9
2017-Oct-20 19:29N 32°48' W 117°22'3 6.2
2017-Oct-20 18:59N 32°51' W 117°23'3 6.4
2017-Oct-20 18:30N 32°54' W 117°23'3 6.3
2017-Oct-20 18:00N 32°57' W 117°24'3 6.0
2017-Oct-20 17:30N 33°00' W 117°24'3 6.3
2017-Oct-20 17:00N 33°03' W 117°24'3 5.6
2017-Oct-20 16:28N 33°06' W 117°25'3 6.4
2017-Oct-20 15:59N 33°10' W 117°25'2 0.1
2017-Oct-19 21:04N 33°12' W 117°24'0 6.0
2017-Oct-19 21:00N 33°12' W 117°25'  

Dump ship's entire track history